sensor_id;sensor_type;location;lat;lon;timestamp;temperature;humidity
7516;DHT22;3799;47.184;8.538;2022-08-01T00:02:13;22.70;74.40
7516;DHT22;3799;47.184;8.538;2022-08-01T00:04:40;22.70;75.10
7516;DHT22;3799;47.184;8.538;2022-08-01T00:07:05;22.70;75.50
7516;DHT22;3799;47.184;8.538;2022-08-01T00:09:34;22.70;76.00
7516;DHT22;3799;47.184;8.538;2022-08-01T00:12:00;22.60;76.40
7516;DHT22;3799;47.184;8.538;2022-08-01T00:14:26;22.60;77.00
7516;DHT22;3799;47.184;8.538;2022-08-01T00:16:52;22.60;77.40
7516;DHT22;3799;47.184;8.538;2022-08-01T00:19:18;22.60;77.80
7516;DHT22;3799;47.184;8.538;2022-08-01T00:21:43;22.50;78.30
7516;DHT22;3799;47.184;8.538;2022-08-01T00:24:11;22.50;78.40
7516;DHT22;3799;47.184;8.538;2022-08-01T00:26:37;22.50;79.10
7516;DHT22;3799;47.184;8.538;2022-08-01T00:29:02;22.40;79.10
7516;DHT22;3799;47.184;8.538;2022-08-01T00:31:30;22.30;79.30
7516;DHT22;3799;47.184;8.538;2022-08-01T00:33:56;22.30;80.50
7516;DHT22;3799;47.184;8.538;2022-08-01T00:36:22;22.30;81.30
7516;DHT22;3799;47.184;8.538;2022-08-01T00:38:48;22.20;81.60
7516;DHT22;3799;47.184;8.538;2022-08-01T00:41:14;22.10;80.70
7516;DHT22;3799;47.184;8.538;2022-08-01T00:43:42;21.80;81.50
7516;DHT22;3799;47.184;8.538;2022-08-01T00:46:08;21.60;82.90
7516;DHT22;3799;47.184;8.538;2022-08-01T00:48:40;21.40;84.80
7516;DHT22;3799;47.184;8.538;2022-08-01T00:51:09;21.30;87.80
7516;DHT22;3799;47.184;8.538;2022-08-01T00:53:35;21.20;89.80
7516;DHT22;3799;47.184;8.538;2022-08-01T00:56:02;21.20;89.80
7516;DHT22;3799;47.184;8.538;2022-08-01T00:58:34;21.10;90.30
7516;DHT22;3799;47.184;8.538;2022-08-01T01:01:11;21.10;91.30
7516;DHT22;3799;47.184;8.538;2022-08-01T01:03:39;21.10;92.30
7516;DHT22;3799;47.184;8.538;2022-08-01T01:06:23;21.20;93.00
7516;DHT22;3799;47.184;8.538;2022-08-01T01:11:49;21.40;93.40
7516;DHT22;3799;47.184;8.538;2022-08-01T01:14:39;21.50;93.40
7516;DHT22;3799;47.184;8.538;2022-08-01T01:17:12;21.50;93.00
7516;DHT22;3799;47.184;8.538;2022-08-01T01:19:45;21.50;93.00
7516;DHT22;3799;47.184;8.538;2022-08-01T01:30:59;21.30;92.80
7516;DHT22;3799;47.184;8.538;2022-08-01T01:33:35;21.30;93.10
7516;DHT22;3799;47.184;8.538;2022-08-01T01:36:09;21.20;93.20
7516;DHT22;3799;47.184;8.538;2022-08-01T01:38:40;21.10;93.50
7516;DHT22;3799;47.184;8.538;2022-08-01T01:41:08;21.00;93.90
7516;DHT22;3799;47.184;8.538;2022-08-01T01:43:36;20.90;94.00
7516;DHT22;3799;47.184;8.538;2022-08-01T01:46:03;20.90;94.50
7516;DHT22;3799;47.184;8.538;2022-08-01T01:48:30;20.80;94.50
7516;DHT22;3799;47.184;8.538;2022-08-01T01:51:02;20.80;94.60
7516;DHT22;3799;47.184;8.538;2022-08-01T01:53:34;20.70;94.70
7516;DHT22;3799;47.184;8.538;2022-08-01T01:56:03;20.70;95.10
7516;DHT22;3799;47.184;8.538;2022-08-01T01:58:34;20.70;95.70
7516;DHT22;3799;47.184;8.538;2022-08-01T02:01:01;20.80;95.60
7516;DHT22;3799;47.184;8.538;2022-08-01T02:03:30;20.80;95.50
7516;DHT22;3799;47.184;8.538;2022-08-01T02:06:00;20.80;95.80
7516;DHT22;3799;47.184;8.538;2022-08-01T02:08:30;20.90;95.80
7516;DHT22;3799;47.184;8.538;2022-08-01T02:10:57;20.90;95.70
7516;DHT22;3799;47.184;8.538;2022-08-01T02:13:43;21.00;95.60
7516;DHT22;3799;47.184;8.538;2022-08-01T02:16:10;21.10;95.50
7516;DHT22;3799;47.184;8.538;2022-08-01T02:18:37;21.10;94.70
7516;DHT22;3799;47.184;8.538;2022-08-01T02:21:05;21.00;94.40
7516;DHT22;3799;47.184;8.538;2022-08-01T02:23:34;20.90;95.00
7516;DHT22;3799;47.184;8.538;2022-08-01T02:26:07;20.80;95.90
7516;DHT22;3799;47.184;8.538;2022-08-01T02:28:38;20.90;96.00
7516;DHT22;3799;47.184;8.538;2022-08-01T02:31:09;20.80;95.70
7516;DHT22;3799;47.184;8.538;2022-08-01T02:33:44;20.80;95.60
7516;DHT22;3799;47.184;8.538;2022-08-01T02:36:11;20.80;96.10
7516;DHT22;3799;47.184;8.538;2022-08-01T02:38:41;20.80;96.00
7516;DHT22;3799;47.184;8.538;2022-08-01T02:41:11;20.80;96.30
7516;DHT22;3799;47.184;8.538;2022-08-01T02:43:49;20.70;96.40
7516;DHT22;3799;47.184;8.538;2022-08-01T02:46:21;20.80;97.00
7516;DHT22;3799;47.184;8.538;2022-08-01T02:48:50;20.80;97.20
7516;DHT22;3799;47.184;8.538;2022-08-01T02:51:17;20.90;96.80
7516;DHT22;3799;47.184;8.538;2022-08-01T02:53:45;20.90;96.50
7516;DHT22;3799;47.184;8.538;2022-08-01T02:56:12;20.90;96.70
7516;DHT22;3799;47.184;8.538;2022-08-01T02:58:39;20.90;96.90
7516;DHT22;3799;47.184;8.538;2022-08-01T03:01:07;21.00;97.00
7516;DHT22;3799;47.184;8.538;2022-08-01T03:03:38;21.00;97.20
7516;DHT22;3799;47.184;8.538;2022-08-01T03:06:09;21.00;96.80
7516;DHT22;3799;47.184;8.538;2022-08-01T03:08:36;20.90;97.00
7516;DHT22;3799;47.184;8.538;2022-08-01T03:11:07;20.90;97.30
7516;DHT22;3799;47.184;8.538;2022-08-01T03:13:37;20.90;97.30
7516;DHT22;3799;47.184;8.538;2022-08-01T03:16:04;20.80;97.30
7516;DHT22;3799;47.184;8.538;2022-08-01T03:18:31;20.80;97.70
7516;DHT22;3799;47.184;8.538;2022-08-01T03:20:59;20.70;98.10
7516;DHT22;3799;47.184;8.538;2022-08-01T03:23:26;20.60;98.40
7516;DHT22;3799;47.184;8.538;2022-08-01T03:25:57;20.60;99.00
7516;DHT22;3799;47.184;8.538;2022-08-01T03:28:24;20.50;99.20
7516;DHT22;3799;47.184;8.538;2022-08-01T03:30:57;20.60;99.90
7516;DHT22;3799;47.184;8.538;2022-08-01T03:33:25;20.60;99.90
7516;DHT22;3799;47.184;8.538;2022-08-01T03:35:54;20.70;99.50
7516;DHT22;3799;47.184;8.538;2022-08-01T03:38:23;20.70;99.50
7516;DHT22;3799;47.184;8.538;2022-08-01T03:41:02;20.70;99.60
7516;DHT22;3799;47.184;8.538;2022-08-01T03:44:12;20.60;99.20
7516;DHT22;3799;47.184;8.538;2022-08-01T03:46:42;20.60;99.50
7516;DHT22;3799;47.184;8.538;2022-08-01T03:49:14;20.50;99.60
7516;DHT22;3799;47.184;8.538;2022-08-01T03:51:44;20.40;99.80
7516;DHT22;3799;47.184;8.538;2022-08-01T03:54:11;20.30;99.90
7516;DHT22;3799;47.184;8.538;2022-08-01T03:56:38;20.40;99.90
7516;DHT22;3799;47.184;8.538;2022-08-01T03:59:09;20.50;99.90
7516;DHT22;3799;47.184;8.538;2022-08-01T04:01:36;20.40;99.90
7516;DHT22;3799;47.184;8.538;2022-08-01T04:04:05;20.40;99.90
7516;DHT22;3799;47.184;8.538;2022-08-01T04:06:33;20.50;99.90
7516;DHT22;3799;47.184;8.538;2022-08-01T04:08:59;20.40;99.60
7516;DHT22;3799;47.184;8.538;2022-08-01T04:11:29;20.50;99.90
7516;DHT22;3799;47.184;8.538;2022-08-01T04:13:55;20.50;99.70
7516;DHT22;3799;47.184;8.538;2022-08-01T04:16:25;20.50;99.90
7516;DHT22;3799;47.184;8.538;2022-08-01T04:18:51;20.60;99.80
7516;DHT22;3799;47.184;8.538;2022-08-01T04:21:25;20.60;99.40
7516;DHT22;3799;47.184;8.538;2022-08-01T04:23:56;20.50;99.90
7516;DHT22;3799;47.184;8.538;2022-08-01T04:26:29;20.40;99.90
7516;DHT22;3799;47.184;8.538;2022-08-01T04:28:56;20.50;99.90
7516;DHT22;3799;47.184;8.538;2022-08-01T04:31:28;20.50;99.90
7516;DHT22;3799;47.184;8.538;2022-08-01T04:33:55;20.60;99.90
7516;DHT22;3799;47.184;8.538;2022-08-01T04:36:26;20.50;99.90
7516;DHT22;3799;47.184;8.538;2022-08-01T04:38:58;20.50;99.90
7516;DHT22;3799;47.184;8.538;2022-08-01T04:41:29;20.50;99.90
7516;DHT22;3799;47.184;8.538;2022-08-01T04:43:57;20.50;99.90
7516;DHT22;3799;47.184;8.538;2022-08-01T04:46:31;20.50;99.90
7516;DHT22;3799;47.184;8.538;2022-08-01T04:49:02;20.50;99.90
7516;DHT22;3799;47.184;8.538;2022-08-01T04:51:52;20.50;99.90
7516;DHT22;3799;47.184;8.538;2022-08-01T04:54:34;20.50;99.90
7516;DHT22;3799;47.184;8.538;2022-08-01T04:57:06;20.50;99.90
7516;DHT22;3799;47.184;8.538;2022-08-01T04:59:33;20.50;99.90
7516;DHT22;3799;47.184;8.538;2022-08-01T05:02:16;20.40;99.90
7516;DHT22;3799;47.184;8.538;2022-08-01T05:04:43;20.40;99.90
7516;DHT22;3799;47.184;8.538;2022-08-01T05:07:10;20.40;99.90
7516;DHT22;3799;47.184;8.538;2022-08-01T05:09:40;20.40;99.90
7516;DHT22;3799;47.184;8.538;2022-08-01T05:12:17;20.40;99.90
7516;DHT22;3799;47.184;8.538;2022-08-01T05:14:43;20.50;99.90
7516;DHT22;3799;47.184;8.538;2022-08-01T05:17:10;20.60;99.90
7516;DHT22;3799;47.184;8.538;2022-08-01T05:19:37;20.90;99.90
7516;DHT22;3799;47.184;8.538;2022-08-01T05:22:06;21.10;99.90
7516;DHT22;3799;47.184;8.538;2022-08-01T05:24:32;21.30;99.90
7516;DHT22;3799;47.184;8.538;2022-08-01T05:27:01;21.40;99.90
7516;DHT22;3799;47.184;8.538;2022-08-01T05:29:30;21.50;99.90
7516;DHT22;3799;47.184;8.538;2022-08-01T05:32:01;21.60;99.90
7516;DHT22;3799;47.184;8.538;2022-08-01T05:34:27;21.70;99.90
7516;DHT22;3799;47.184;8.538;2022-08-01T05:36:53;21.80;99.90
7516;DHT22;3799;47.184;8.538;2022-08-01T05:39:19;21.90;99.90
7516;DHT22;3799;47.184;8.538;2022-08-01T05:41:45;21.90;99.90
7516;DHT22;3799;47.184;8.538;2022-08-01T05:44:11;22.00;99.90
7516;DHT22;3799;47.184;8.538;2022-08-01T05:46:37;22.10;99.90
7516;DHT22;3799;47.184;8.538;2022-08-01T05:49:04;22.20;99.90
7516;DHT22;3799;47.184;8.538;2022-08-01T05:51:30;22.30;99.90
7516;DHT22;3799;47.184;8.538;2022-08-01T05:53:57;22.50;99.80
7516;DHT22;3799;47.184;8.538;2022-08-01T05:56:23;22.60;99.60
7516;DHT22;3799;47.184;8.538;2022-08-01T05:58:50;22.80;99.30
7516;DHT22;3799;47.184;8.538;2022-08-01T06:01:16;22.90;98.90
7516;DHT22;3799;47.184;8.538;2022-08-01T06:03:42;23.00;98.60
7516;DHT22;3799;47.184;8.538;2022-08-01T06:06:08;23.10;98.30
7516;DHT22;3799;47.184;8.538;2022-08-01T06:08:34;23.20;98.00
7516;DHT22;3799;47.184;8.538;2022-08-01T06:11:00;23.30;97.90
7516;DHT22;3799;47.184;8.538;2022-08-01T06:13:32;23.30;97.70
7516;DHT22;3799;47.184;8.538;2022-08-01T06:15:58;23.40;97.70
7516;DHT22;3799;47.184;8.538;2022-08-01T06:18:27;23.50;97.70
7516;DHT22;3799;47.184;8.538;2022-08-01T06:20:54;23.50;97.60
7516;DHT22;3799;47.184;8.538;2022-08-01T06:23:21;23.60;97.60
7516;DHT22;3799;47.184;8.538;2022-08-01T06:25:47;23.60;97.50
7516;DHT22;3799;47.184;8.538;2022-08-01T06:28:13;23.60;97.50
7516;DHT22;3799;47.184;8.538;2022-08-01T06:30:39;23.60;97.60
7516;DHT22;3799;47.184;8.538;2022-08-01T06:33:05;23.50;97.80
7516;DHT22;3799;47.184;8.538;2022-08-01T06:35:34;23.50;98.10
7516;DHT22;3799;47.184;8.538;2022-08-01T06:38:02;23.40;98.40
7516;DHT22;3799;47.184;8.538;2022-08-01T06:40:28;23.30;98.50
7516;DHT22;3799;47.184;8.538;2022-08-01T06:42:54;23.30;98.60
7516;DHT22;3799;47.184;8.538;2022-08-01T06:45:20;23.30;98.60
7516;DHT22;3799;47.184;8.538;2022-08-01T06:47:51;23.30;98.60
7516;DHT22;3799;47.184;8.538;2022-08-01T06:50:17;23.30;98.80
7516;DHT22;3799;47.184;8.538;2022-08-01T06:52:46;23.30;98.90
7516;DHT22;3799;47.184;8.538;2022-08-01T06:55:21;23.30;98.90
7516;DHT22;3799;47.184;8.538;2022-08-01T06:57:52;23.30;98.90
7516;DHT22;3799;47.184;8.538;2022-08-01T07:00:22;23.40;98.80
7516;DHT22;3799;47.184;8.538;2022-08-01T07:02:56;23.40;98.70
7516;DHT22;3799;47.184;8.538;2022-08-01T07:05:25;23.50;98.70
7516;DHT22;3799;47.184;8.538;2022-08-01T07:07:51;23.50;98.40
7516;DHT22;3799;47.184;8.538;2022-08-01T07:10:20;23.60;98.20
7516;DHT22;3799;47.184;8.538;2022-08-01T07:12:46;23.70;98.00
7516;DHT22;3799;47.184;8.538;2022-08-01T07:15:12;23.80;98.20
7516;DHT22;3799;47.184;8.538;2022-08-01T07:17:42;23.90;97.90
7516;DHT22;3799;47.184;8.538;2022-08-01T07:20:09;24.00;97.80
7516;DHT22;3799;47.184;8.538;2022-08-01T07:22:36;24.00;97.10
7516;DHT22;3799;47.184;8.538;2022-08-01T07:25:06;24.10;97.00
7516;DHT22;3799;47.184;8.538;2022-08-01T07:27:32;24.20;97.00
7516;DHT22;3799;47.184;8.538;2022-08-01T07:29:59;24.20;96.90
7516;DHT22;3799;47.184;8.538;2022-08-01T07:32:42;24.30;96.80
7516;DHT22;3799;47.184;8.538;2022-08-01T07:35:08;24.40;96.60
7516;DHT22;3799;47.184;8.538;2022-08-01T07:37:37;24.40;96.50
7516;DHT22;3799;47.184;8.538;2022-08-01T07:40:07;24.50;95.30
7516;DHT22;3799;47.184;8.538;2022-08-01T07:42:33;24.60;95.40
7516;DHT22;3799;47.184;8.538;2022-08-01T07:44:58;24.70;95.10
7516;DHT22;3799;47.184;8.538;2022-08-01T07:47:25;24.80;94.40
7516;DHT22;3799;47.184;8.538;2022-08-01T07:49:52;24.80;94.50
7516;DHT22;3799;47.184;8.538;2022-08-01T07:52:18;24.80;94.40
7516;DHT22;3799;47.184;8.538;2022-08-01T07:54:44;24.90;94.60
7516;DHT22;3799;47.184;8.538;2022-08-01T07:57:10;24.90;94.60
7516;DHT22;3799;47.184;8.538;2022-08-01T07:59:35;24.90;94.60
7516;DHT22;3799;47.184;8.538;2022-08-01T08:02:01;24.90;94.70
7516;DHT22;3799;47.184;8.538;2022-08-01T08:04:28;24.80;94.80
7516;DHT22;3799;47.184;8.538;2022-08-01T08:06:54;24.80;94.90
7516;DHT22;3799;47.184;8.538;2022-08-01T08:09:20;24.80;94.70
7516;DHT22;3799;47.184;8.538;2022-08-01T08:11:46;24.80;94.50
7516;DHT22;3799;47.184;8.538;2022-08-01T08:14:12;24.80;94.50
7516;DHT22;3799;47.184;8.538;2022-08-01T08:16:38;24.80;94.20
7516;DHT22;3799;47.184;8.538;2022-08-01T08:19:04;24.90;93.80
7516;DHT22;3799;47.184;8.538;2022-08-01T08:21:36;24.80;93.60
7516;DHT22;3799;47.184;8.538;2022-08-01T08:24:08;24.80;93.60
7516;DHT22;3799;47.184;8.538;2022-08-01T08:26:53;24.90;93.10
7516;DHT22;3799;47.184;8.538;2022-08-01T08:29:20;25.00;92.70
7516;DHT22;3799;47.184;8.538;2022-08-01T08:31:53;25.00;91.80
7516;DHT22;3799;47.184;8.538;2022-08-01T08:34:21;25.00;91.60
7516;DHT22;3799;47.184;8.538;2022-08-01T08:36:48;25.00;91.80
7516;DHT22;3799;47.184;8.538;2022-08-01T08:39:14;25.10;91.40
7516;DHT22;3799;47.184;8.538;2022-08-01T08:41:44;25.20;90.80
7516;DHT22;3799;47.184;8.538;2022-08-01T08:44:10;25.30;90.70
7516;DHT22;3799;47.184;8.538;2022-08-01T08:46:44;25.30;89.90
7516;DHT22;3799;47.184;8.538;2022-08-01T08:49:22;25.40;88.80
7516;DHT22;3799;47.184;8.538;2022-08-01T08:51:50;25.50;87.70
7516;DHT22;3799;47.184;8.538;2022-08-01T08:54:21;25.50;85.50
7516;DHT22;3799;47.184;8.538;2022-08-01T08:56:47;25.60;84.30
7516;DHT22;3799;47.184;8.538;2022-08-01T08:59:14;25.70;82.70
7516;DHT22;3799;47.184;8.538;2022-08-01T09:01:43;25.70;81.40
7516;DHT22;3799;47.184;8.538;2022-08-01T09:04:10;25.80;80.10
7516;DHT22;3799;47.184;8.538;2022-08-01T09:06:37;25.90;78.40
7516;DHT22;3799;47.184;8.538;2022-08-01T09:09:07;25.90;76.80
7516;DHT22;3799;47.184;8.538;2022-08-01T09:11:37;26.00;74.00
7516;DHT22;3799;47.184;8.538;2022-08-01T09:14:12;26.00;73.80
7516;DHT22;3799;47.184;8.538;2022-08-01T09:16:44;26.10;73.30
7516;DHT22;3799;47.184;8.538;2022-08-01T09:19:13;26.10;72.20
7516;DHT22;3799;47.184;8.538;2022-08-01T09:21:54;26.20;70.20
7516;DHT22;3799;47.184;8.538;2022-08-01T09:24:21;26.30;69.10
7516;DHT22;3799;47.184;8.538;2022-08-01T09:26:48;26.40;68.10
7516;DHT22;3799;47.184;8.538;2022-08-01T09:29:24;26.50;66.90
7516;DHT22;3799;47.184;8.538;2022-08-01T09:31:50;26.60;65.90
7516;DHT22;3799;47.184;8.538;2022-08-01T09:34:25;26.70;65.10
7516;DHT22;3799;47.184;8.538;2022-08-01T09:36:56;26.90;64.90
7516;DHT22;3799;47.184;8.538;2022-08-01T09:39:27;27.00;63.90
7516;DHT22;3799;47.184;8.538;2022-08-01T09:41:56;27.10;62.60
7516;DHT22;3799;47.184;8.538;2022-08-01T09:44:42;27.20;61.50
7516;DHT22;3799;47.184;8.538;2022-08-01T09:47:09;27.40;61.10
7516;DHT22;3799;47.184;8.538;2022-08-01T09:49:37;27.50;59.80
7516;DHT22;3799;47.184;8.538;2022-08-01T09:52:24;27.60;59.10
7516;DHT22;3799;47.184;8.538;2022-08-01T09:54:57;27.70;57.80
7516;DHT22;3799;47.184;8.538;2022-08-01T09:57:24;27.80;57.10
7516;DHT22;3799;47.184;8.538;2022-08-01T09:59:52;27.90;56.90
7516;DHT22;3799;47.184;8.538;2022-08-01T10:02:39;28.00;56.90
7516;DHT22;3799;47.184;8.538;2022-08-01T10:05:09;28.10;56.60
7516;DHT22;3799;47.184;8.538;2022-08-01T10:07:54;28.30;56.40
7516;DHT22;3799;47.184;8.538;2022-08-01T10:10:20;28.40;55.90
7516;DHT22;3799;47.184;8.538;2022-08-01T10:12:47;28.40;54.90
7516;DHT22;3799;47.184;8.538;2022-08-01T10:15:18;28.50;54.60
7516;DHT22;3799;47.184;8.538;2022-08-01T10:17:56;28.70;53.60
7516;DHT22;3799;47.184;8.538;2022-08-01T10:20:24;28.80;52.80
7516;DHT22;3799;47.184;8.538;2022-08-01T10:22:53;28.80;52.30
7516;DHT22;3799;47.184;8.538;2022-08-01T10:25:21;28.90;51.10
7516;DHT22;3799;47.184;8.538;2022-08-01T10:27:53;29.00;50.90
7516;DHT22;3799;47.184;8.538;2022-08-01T10:30:24;29.10;50.70
7516;DHT22;3799;47.184;8.538;2022-08-01T10:32:51;29.20;50.40
7516;DHT22;3799;47.184;8.538;2022-08-01T10:35:22;29.30;50.20
7516;DHT22;3799;47.184;8.538;2022-08-01T10:37:48;29.50;50.00
7516;DHT22;3799;47.184;8.538;2022-08-01T10:40:16;29.50;49.10
7516;DHT22;3799;47.184;8.538;2022-08-01T10:42:43;29.60;49.10
7516;DHT22;3799;47.184;8.538;2022-08-01T10:45:14;29.70;48.80
7516;DHT22;3799;47.184;8.538;2022-08-01T10:47:53;29.90;48.90
7516;DHT22;3799;47.184;8.538;2022-08-01T10:50:31;30.00;48.80
7516;DHT22;3799;47.184;8.538;2022-08-01T10:53:23;30.20;48.50
7516;DHT22;3799;47.184;8.538;2022-08-01T10:58:24;30.40;47.40
7516;DHT22;3799;47.184;8.538;2022-08-01T11:03:38;30.60;46.40
7516;DHT22;3799;47.184;8.538;2022-08-01T11:06:17;30.80;45.50
7516;DHT22;3799;47.184;8.538;2022-08-01T11:08:53;30.80;44.90
7516;DHT22;3799;47.184;8.538;2022-08-01T11:11:20;30.90;44.70
7516;DHT22;3799;47.184;8.538;2022-08-01T11:14:02;30.90;45.10
7516;DHT22;3799;47.184;8.538;2022-08-01T11:16:40;31.00;45.00
7516;DHT22;3799;47.184;8.538;2022-08-01T11:19:07;31.10;44.30
7516;DHT22;3799;47.184;8.538;2022-08-01T11:27:24;31.30;43.70
7516;DHT22;3799;47.184;8.538;2022-08-01T11:33:04;31.40;44.80
7516;DHT22;3799;47.184;8.538;2022-08-01T11:35:32;31.50;44.90
7516;DHT22;3799;47.184;8.538;2022-08-01T11:38:22;31.60;44.70
7516;DHT22;3799;47.184;8.538;2022-08-01T11:49:46;31.90;44.40
7516;DHT22;3799;47.184;8.538;2022-08-01T11:52:25;31.90;44.60
7516;DHT22;3799;47.184;8.538;2022-08-01T11:54:54;31.90;44.60
7516;DHT22;3799;47.184;8.538;2022-08-01T11:57:31;31.80;44.30
7516;DHT22;3799;47.184;8.538;2022-08-01T12:00:00;31.90;44.40
7516;DHT22;3799;47.184;8.538;2022-08-01T12:02:28;31.90;44.70
7516;DHT22;3799;47.184;8.538;2022-08-01T12:07:23;31.90;44.30
7516;DHT22;3799;47.184;8.538;2022-08-01T12:10:30;32.00;44.20
7516;DHT22;3799;47.184;8.538;2022-08-01T12:13:08;32.10;43.80
7516;DHT22;3799;47.184;8.538;2022-08-01T12:15:37;32.30;43.90
7516;DHT22;3799;47.184;8.538;2022-08-01T12:18:07;32.50;44.10
7516;DHT22;3799;47.184;8.538;2022-08-01T12:20:41;32.60;43.60
7516;DHT22;3799;47.184;8.538;2022-08-01T12:23:15;32.60;43.40
7516;DHT22;3799;47.184;8.538;2022-08-01T12:25:41;32.60;43.20
7516;DHT22;3799;47.184;8.538;2022-08-01T12:28:11;32.70;43.30
7516;DHT22;3799;47.184;8.538;2022-08-01T12:30:40;32.80;43.80
7516;DHT22;3799;47.184;8.538;2022-08-01T12:33:08;32.90;43.50
7516;DHT22;3799;47.184;8.538;2022-08-01T12:35:35;33.00;43.70
7516;DHT22;3799;47.184;8.538;2022-08-01T12:38:04;33.10;43.30
7516;DHT22;3799;47.184;8.538;2022-08-01T12:40:32;33.20;43.20
7516;DHT22;3799;47.184;8.538;2022-08-01T12:43:04;33.30;42.80
7516;DHT22;3799;47.184;8.538;2022-08-01T12:45:33;33.50;42.50
7516;DHT22;3799;47.184;8.538;2022-08-01T12:48:07;33.60;41.90
7516;DHT22;3799;47.184;8.538;2022-08-01T12:50:34;33.70;41.60
7516;DHT22;3799;47.184;8.538;2022-08-01T12:53:02;33.80;41.20
7516;DHT22;3799;47.184;8.538;2022-08-01T12:55:27;33.80;40.90
7516;DHT22;3799;47.184;8.538;2022-08-01T12:58:11;34.00;41.40
7516;DHT22;3799;47.184;8.538;2022-08-01T13:00:38;34.10;41.00
7516;DHT22;3799;47.184;8.538;2022-08-01T13:03:16;34.20;40.50
7516;DHT22;3799;47.184;8.538;2022-08-01T13:08:12;34.20;39.90
7516;DHT22;3799;47.184;8.538;2022-08-01T13:10:39;34.20;39.70
7516;DHT22;3799;47.184;8.538;2022-08-01T13:13:10;34.30;40.10
7516;DHT22;3799;47.184;8.538;2022-08-01T13:15:38;34.40;40.40
7516;DHT22;3799;47.184;8.538;2022-08-01T13:18:30;34.50;40.00
7516;DHT22;3799;47.184;8.538;2022-08-01T13:23:35;34.70;39.70
7516;DHT22;3799;47.184;8.538;2022-08-01T13:26:01;34.70;39.30
7516;DHT22;3799;47.184;8.538;2022-08-01T13:28:27;34.80;39.30
7516;DHT22;3799;47.184;8.538;2022-08-01T13:31:13;34.80;39.10
7516;DHT22;3799;47.184;8.538;2022-08-01T13:33:44;34.90;38.10
7516;DHT22;3799;47.184;8.538;2022-08-01T13:36:11;35.00;37.80
7516;DHT22;3799;47.184;8.538;2022-08-01T13:38:38;35.10;37.90
7516;DHT22;3799;47.184;8.538;2022-08-01T13:41:23;35.30;37.90
7516;DHT22;3799;47.184;8.538;2022-08-01T13:43:49;35.40;37.70
7516;DHT22;3799;47.184;8.538;2022-08-01T13:46:15;35.60;37.40
7516;DHT22;3799;47.184;8.538;2022-08-01T13:48:42;35.60;37.40
7516;DHT22;3799;47.184;8.538;2022-08-01T13:51:07;35.70;37.30
7516;DHT22;3799;47.184;8.538;2022-08-01T13:53:33;35.80;37.00
7516;DHT22;3799;47.184;8.538;2022-08-01T13:55:59;35.90;37.10
7516;DHT22;3799;47.184;8.538;2022-08-01T13:58:25;35.90;36.80
7516;DHT22;3799;47.184;8.538;2022-08-01T14:00:51;36.00;36.60
7516;DHT22;3799;47.184;8.538;2022-08-01T14:03:17;36.10;35.20
7516;DHT22;3799;47.184;8.538;2022-08-01T14:05:44;36.00;35.10
7516;DHT22;3799;47.184;8.538;2022-08-01T14:08:09;35.80;35.30
7516;DHT22;3799;47.184;8.538;2022-08-01T14:10:35;35.70;35.50
7516;DHT22;3799;47.184;8.538;2022-08-01T14:13:04;35.40;35.80
7516;DHT22;3799;47.184;8.538;2022-08-01T14:15:31;35.30;36.10
7516;DHT22;3799;47.184;8.538;2022-08-01T14:17:58;35.20;35.80
7516;DHT22;3799;47.184;8.538;2022-08-01T14:20:25;35.00;35.50
7516;DHT22;3799;47.184;8.538;2022-08-01T14:22:51;35.10;35.40
7516;DHT22;3799;47.184;8.538;2022-08-01T14:25:16;35.20;35.30
7516;DHT22;3799;47.184;8.538;2022-08-01T14:27:44;35.50;35.30
7516;DHT22;3799;47.184;8.538;2022-08-01T14:30:11;35.80;34.70
7516;DHT22;3799;47.184;8.538;2022-08-01T14:32:37;36.00;34.10
7516;DHT22;3799;47.184;8.538;2022-08-01T14:35:07;36.20;33.70
7516;DHT22;3799;47.184;8.538;2022-08-01T14:37:34;36.50;33.40
7516;DHT22;3799;47.184;8.538;2022-08-01T14:40:00;36.60;33.00
7516;DHT22;3799;47.184;8.538;2022-08-01T14:42:31;36.70;32.80
7516;DHT22;3799;47.184;8.538;2022-08-01T14:44:57;36.80;32.30
7516;DHT22;3799;47.184;8.538;2022-08-01T14:47:23;36.90;31.20
7516;DHT22;3799;47.184;8.538;2022-08-01T14:49:50;37.00;30.90
7516;DHT22;3799;47.184;8.538;2022-08-01T14:52:16;37.00;30.60
7516;DHT22;3799;47.184;8.538;2022-08-01T14:54:42;37.10;30.10
7516;DHT22;3799;47.184;8.538;2022-08-01T14:57:11;37.20;30.10
7516;DHT22;3799;47.184;8.538;2022-08-01T14:59:37;37.30;30.60
7516;DHT22;3799;47.184;8.538;2022-08-01T15:02:09;37.40;30.70
7516;DHT22;3799;47.184;8.538;2022-08-01T15:04:36;37.40;30.50
7516;DHT22;3799;47.184;8.538;2022-08-01T15:07:02;37.40;29.70
7516;DHT22;3799;47.184;8.538;2022-08-01T15:09:28;37.30;29.80
7516;DHT22;3799;47.184;8.538;2022-08-01T15:11:54;37.20;29.90
7516;DHT22;3799;47.184;8.538;2022-08-01T15:14:20;37.30;29.90
7516;DHT22;3799;47.184;8.538;2022-08-01T15:17:04;37.30;30.00
7516;DHT22;3799;47.184;8.538;2022-08-01T15:19:33;37.30;30.00
7516;DHT22;3799;47.184;8.538;2022-08-01T15:21:59;37.40;29.70
7516;DHT22;3799;47.184;8.538;2022-08-01T15:24:28;37.40;29.40
7516;DHT22;3799;47.184;8.538;2022-08-01T15:26:54;37.50;29.60
7516;DHT22;3799;47.184;8.538;2022-08-01T15:29:20;37.10;29.50
7516;DHT22;3799;47.184;8.538;2022-08-01T15:31:49;36.60;30.00
7516;DHT22;3799;47.184;8.538;2022-08-01T15:34:24;36.00;30.30
7516;DHT22;3799;47.184;8.538;2022-08-01T15:36:51;35.60;30.40
7516;DHT22;3799;47.184;8.538;2022-08-01T15:39:17;35.30;31.60
7516;DHT22;3799;47.184;8.538;2022-08-01T15:41:43;35.10;32.00
7516;DHT22;3799;47.184;8.538;2022-08-01T15:44:09;35.10;32.10
7516;DHT22;3799;47.184;8.538;2022-08-01T15:46:34;35.00;31.60
7516;DHT22;3799;47.184;8.538;2022-08-01T15:49:04;35.00;31.90
7516;DHT22;3799;47.184;8.538;2022-08-01T15:51:31;35.30;32.20
7516;DHT22;3799;47.184;8.538;2022-08-01T15:53:57;35.50;32.30
7516;DHT22;3799;47.184;8.538;2022-08-01T15:56:23;35.50;31.80
7516;DHT22;3799;47.184;8.538;2022-08-01T15:58:50;35.50;31.70
7516;DHT22;3799;47.184;8.538;2022-08-01T16:01:16;35.30;32.00
7516;DHT22;3799;47.184;8.538;2022-08-01T16:03:42;35.10;32.10
7516;DHT22;3799;47.184;8.538;2022-08-01T16:06:08;34.90;32.80
7516;DHT22;3799;47.184;8.538;2022-08-01T16:08:34;34.80;33.40
7516;DHT22;3799;47.184;8.538;2022-08-01T16:10:59;34.70;33.40
7516;DHT22;3799;47.184;8.538;2022-08-01T16:13:25;34.70;33.80
7516;DHT22;3799;47.184;8.538;2022-08-01T16:15:51;34.70;34.40
7516;DHT22;3799;47.184;8.538;2022-08-01T16:18:17;34.60;34.70
7516;DHT22;3799;47.184;8.538;2022-08-01T16:20:43;34.60;35.70
7516;DHT22;3799;47.184;8.538;2022-08-01T16:23:09;34.50;35.70
7516;DHT22;3799;47.184;8.538;2022-08-01T16:25:34;34.40;35.40
7516;DHT22;3799;47.184;8.538;2022-08-01T16:28:01;34.20;35.20
7516;DHT22;3799;47.184;8.538;2022-08-01T16:30:27;34.00;35.10
7516;DHT22;3799;47.184;8.538;2022-08-01T16:32:52;33.80;35.80
7516;DHT22;3799;47.184;8.538;2022-08-01T16:35:18;33.70;36.10
7516;DHT22;3799;47.184;8.538;2022-08-01T16:37:47;33.50;36.10
7516;DHT22;3799;47.184;8.538;2022-08-01T16:40:13;33.20;36.40
7516;DHT22;3799;47.184;8.538;2022-08-01T16:42:38;32.90;36.70
7516;DHT22;3799;47.184;8.538;2022-08-01T16:45:05;32.60;37.50
7516;DHT22;3799;47.184;8.538;2022-08-01T16:47:30;32.20;38.30
7516;DHT22;3799;47.184;8.538;2022-08-01T16:49:56;32.00;38.70
7516;DHT22;3799;47.184;8.538;2022-08-01T16:52:22;31.70;39.10
7516;DHT22;3799;47.184;8.538;2022-08-01T16:54:50;31.50;39.30
7516;DHT22;3799;47.184;8.538;2022-08-01T16:57:16;31.20;39.20
7516;DHT22;3799;47.184;8.538;2022-08-01T16:59:42;31.00;39.30